Time,TemperatureF,DewpointF,PressureIn,WindDirection,WindDirectionDegrees,WindSpeedMPH,WindSpeedGustMPH,Humidity,HourlyPrecipIn,Conditions,Clouds,dailyrainin,SoftwareType,DateUTC
2013-02-28 00:00:00,13.9,4.0,30.60,NE,52,1.0,4.0,64,0.00,,SKC,0.00,VWS V14.00,2013-02-28 07:00:00,
2013-02-28 00:02:00,13.9,4.0,30.60,NE,52,1.0,1.0,64,0.00,,SKC,0.00,VWS V14.00,2013-02-28 07:02:00,
2013-02-28 00:08:00,13.6,3.4,30.61,NE,52,1.0,2.0,63,0.00,,SKC,0.00,VWS V14.00,2013-02-28 07:08:00,
2013-02-28 00:13:00,13.5,3.6,30.61,NE,52,0.0,3.0,64,0.00,,SKC,0.00,VWS V14.00,2013-02-28 07:13:00,
2013-02-28 00:18:00,13.4,3.5,30.61,NE,52,0.0,3.0,64,0.00,,SKC,0.00,VWS V14.00,2013-02-28 07:18:00,
2013-02-28 00:23:00,13.0,2.8,30.61,NE,52,0.0,3.0,63,0.00,,SKC,0.00,VWS V14.00,2013-02-28 07:23:00,
2013-02-28 00:28:00,12.9,3.0,30.61,ENE,64,0.0,5.0,64,0.00,,SKC,0.00,VWS V14.00,2013-02-28 07:28:00,
2013-02-28 00:30:00,13.0,3.5,30.62,ENE,64,0.0,5.0,65,0.00,,SKC,0.00,VWS V14.00,2013-02-28 07:30:00,
2013-02-28 00:34:00,12.9,3.4,30.62,ENE,64,0.0,0.0,65,0.00,,SKC,0.00,VWS V14.00,2013-02-28 07:34:00,
2013-02-28 00:39:00,12.7,3.5,30.62,ENE,64,0.0,0.0,66,0.00,,SKC,0.00,VWS V14.00,2013-02-28 07:39:00,
2013-02-28 00:44:00,12.4,3.5,30.62,ENE,64,0.0,0.0,67,0.00,,SKC,0.00,VWS V14.00,2013-02-28 07:44:00,
2013-02-28 00:49:00,12.2,3.0,30.63,ENE,64,0.0,0.0,66,0.00,,SKC,0.00,VWS V14.00,2013-02-28 07:49:00,
2013-02-28 00:55:00,11.9,2.7,30.63,ENE,64,0.0,0.0,66,0.00,,SKC,0.00,VWS V14.00,2013-02-28 07:55:00,
2013-02-28 01:00:00,11.8,3.0,30.63,ENE,64,0.0,1.0,67,0.00,,SKC,0.00,VWS V14.00,2013-02-28 08:00:00,
2013-02-28 01:05:00,11.7,2.9,30.63,ENE,64,0.0,0.0,67,0.00,,SKC,0.00,VWS V14.00,2013-02-28 08:05:00,
2013-02-28 01:10:00,11.7,2.9,30.63,ENE,64,0.0,1.0,67,0.00,,SKC,0.00,VWS V14.00,2013-02-28 08:10:00,
2013-02-28 01:16:00,11.9,3.1,30.63,ENE,64,0.0,3.0,67,0.00,,SKC,0.00,VWS V14.00,2013-02-28 08:16:00,
2013-02-28 01:21:00,12.0,3.5,30.64,ENE,64,0.0,3.0,68,0.00,,SKC,0.00,VWS V14.00,2013-02-28 08:21:00,
2013-02-28 01:26:00,11.8,3.0,30.64,ENE,64,0.0,3.0,67,0.00,,SKC,0.00,VWS V14.00,2013-02-28 08:26:00,
2013-02-28 01:30:00,11.7,2.9,30.65,ENE,64,0.0,3.0,67,0.00,,SKC,0.00,VWS V14.00,2013-02-28 08:30:00,
2013-02-28 01:31:00,11.7,2.9,30.65,ENE,64,0.0,3.0,67,0.00,,SKC,0.00,VWS V14.00,2013-02-28 08:31:00,
2013-02-28 01:37:00,11.6,3.1,30.64,ENE,64,0.0,0.0,68,0.00,,SKC,0.00,VWS V14.00,2013-02-28 08:37:00,
2013-02-28 01:42:00,11.4,3.2,30.64,ENE,64,0.0,0.0,69,0.00,,SKC,0.00,VWS V14.00,2013-02-28 08:42:00,
2013-02-28 01:47:00,11.0,2.8,30.65,ENE,64,0.0,0.0,69,0.00,,SKC,0.00,VWS V14.00,2013-02-28 08:47:00,
2013-02-28 01:52:00,10.7,2.9,30.65,ENE,64,0.0,0.0,70,0.00,,SKC,0.00,VWS V14.00,2013-02-28 08:52:00,
2013-02-28 01:58:00,10.3,2.8,30.65,ENE,64,0.0,0.0,71,0.00,,SKC,0.00,VWS V14.00,2013-02-28 08:58:00,
2013-02-28 02:00:00,10.0,2.5,30.65,ENE,64,0.0,0.0,71,0.00,,SKC,0.00,VWS V14.00,2013-02-28 09:00:00,
2013-02-28 02:03:00,10.0,2.8,30.65,ENE,64,0.0,0.0,72,0.00,,SKC,0.00,VWS V14.00,2013-02-28 09:03:00,
2013-02-28 02:08:00,9.7,2.2,30.65,ENE,64,0.0,0.0,71,0.00,,SKC,0.00,VWS V14.00,2013-02-28 09:08:00,
2013-02-28 02:13:00,9.4,2.2,30.65,ENE,64,0.0,0.0,72,0.00,,SKC,0.00,VWS V14.00,2013-02-28 09:13:00,
2013-02-28 02:19:00,9.2,2.3,30.64,ENE,64,0.0,1.0,73,0.00,,SKC,0.00,VWS V14.00,2013-02-28 09:19:00,
2013-02-28 02:24:00,8.8,1.6,30.65,ENE,64,1.0,2.0,72,0.00,,SKC,0.00,VWS V14.00,2013-02-28 09:24:00,
2013-02-28 02:29:00,8.4,1.5,30.64,ENE,64,0.0,2.0,73,0.00,,SKC,0.00,VWS V14.00,2013-02-28 09:29:00,
2013-02-28 02:30:00,8.4,1.8,30.64,ENE,64,0.0,2.0,74,0.00,,SKC,0.00,VWS V14.00,2013-02-28 09:30:00,
2013-02-28 02:34:00,8.5,1.9,30.64,ENE,64,0.0,1.0,74,0.00,,SKC,0.00,VWS V14.00,2013-02-28 09:34:00,
2013-02-28 02:39:00,8.6,1.7,30.64,ENE,64,0.0,2.0,73,0.00,,SKC,0.00,VWS V14.00,2013-02-28 09:39:00,
2013-02-28 02:45:00,8.5,1.9,30.64,ENE,64,1.0,2.0,74,0.00,,SKC,0.00,VWS V14.00,2013-02-28 09:45:00,
2013-02-28 02:50:00,8.2,1.4,30.64,ENE,64,0.0,2.0,73,0.00,,SKC,0.00,VWS V14.00,2013-02-28 09:50:00,
2013-02-28 02:55:00,8.0,1.5,30.64,ENE,64,0.0,2.0,74,0.00,,SKC,0.00,VWS V14.00,2013-02-28 09:55:00,
2013-02-28 03:00:00,7.9,1.4,30.64,ENE,64,0.0,2.0,74,0.00,,SKC,0.00,VWS V14.00,2013-02-28 10:00:00,
2013-02-28 03:06:00,7.8,1.5,30.64,ENE,64,0.0,0.0,75,0.00,,SKC,0.00,VWS V14.00,2013-02-28 10:06:00,
2013-02-28 03:11:00,7.8,1.8,30.64,ENE,64,2.0,2.0,76,0.00,,SKC,0.00,VWS V14.00,2013-02-28 10:11:00,
2013-02-28 03:16:00,7.8,1.5,30.64,ENE,64,0.0,3.0,75,0.00,,SKC,0.00,VWS V14.00,2013-02-28 10:16:00,
2013-02-28 03:21:00,7.6,1.4,30.64,ENE,64,1.0,3.0,75,0.00,,SKC,0.00,VWS V14.00,2013-02-28 10:21:00,
2013-02-28 03:27:00,7.6,1.4,30.64,ENE,64,1.0,3.0,75,0.00,,SKC,0.00,VWS V14.00,2013-02-28 10:27:00,
2013-02-28 03:30:00,7.8,1.5,30.64,ENE,64,0.0,3.0,75,0.00,,SKC,0.00,VWS V14.00,2013-02-28 10:30:00,
2013-02-28 03:32:00,7.8,1.5,30.64,ENE,64,0.0,3.0,75,0.00,,SKC,0.00,VWS V14.00,2013-02-28 10:32:00,
2013-02-28 03:37:00,7.9,1.6,30.64,ENE,64,0.0,0.0,75,0.00,,SKC,0.00,VWS V14.00,2013-02-28 10:37:00,
2013-02-28 03:42:00,7.8,1.5,30.64,ENE,64,0.0,0.0,75,0.00,,SKC,0.00,VWS V14.00,2013-02-28 10:42:00,
2013-02-28 03:48:00,7.7,1.4,30.64,ENE,64,0.0,1.0,75,0.00,,SKC,0.00,VWS V14.00,2013-02-28 10:48:00,
2013-02-28 03:53:00,7.2,0.7,30.64,ENE,64,0.0,1.0,74,0.00,,SKC,0.00,VWS V14.00,2013-02-28 10:53:00,
2013-02-28 03:58:00,7.1,1.1,30.64,ENE,64,0.0,1.0,76,0.00,,SKC,0.00,VWS V14.00,2013-02-28 10:58:00,
2013-02-28 04:00:00,6.9,0.9,30.64,ENE,64,0.0,1.0,76,0.00,,SKC,0.00,VWS V14.00,2013-02-28 11:00:00,
2013-02-28 04:03:00,7.0,1.3,30.64,ENE,64,0.0,0.0,77,0.00,,SKC,0.00,VWS V14.00,2013-02-28 11:03:00,
2013-02-28 04:08:00,7.0,1.0,30.64,ENE,64,0.0,0.0,76,0.00,,SKC,0.00,VWS V14.00,2013-02-28 11:08:00,
2013-02-28 04:14:00,6.8,0.9,30.64,ENE,64,0.0,0.0,76,0.00,,SKC,0.00,VWS V14.00,2013-02-28 11:14:00,
2013-02-28 04:19:00,6.8,1.1,30.64,ENE,64,0.0,1.0,77,0.00,,SKC,0.00,VWS V14.00,2013-02-28 11:19:00,
2013-02-28 04:24:00,6.6,0.9,30.65,ENE,64,0.0,1.0,77,0.00,,SKC,0.00,VWS V14.00,2013-02-28 11:24:00,
2013-02-28 04:29:00,6.5,0.6,30.65,ENE,64,0.0,1.0,76,0.00,,SKC,0.00,VWS V14.00,2013-02-28 11:29:00,
2013-02-28 04:30:00,6.4,0.7,30.64,ENE,64,0.0,1.0,77,0.00,,SKC,0.00,VWS V14.00,2013-02-28 11:30:00,
2013-02-28 04:35:00,6.4,0.7,30.65,ENE,64,0.0,0.0,77,0.00,,SKC,0.00,VWS V14.00,2013-02-28 11:35:00,
2013-02-28 04:40:00,6.4,1.0,30.65,ENE,64,0.0,0.0,78,0.00,,SKC,0.00,VWS V14.00,2013-02-28 11:40:00,
2013-02-28 04:45:00,6.6,1.2,30.65,ENE,64,0.0,0.0,78,0.00,,SKC,0.00,VWS V14.00,2013-02-28 11:45:00,
2013-02-28 04:51:00,6.4,0.7,30.65,ENE,64,0.0,0.0,77,0.00,,SKC,0.00,VWS V14.00,2013-02-28 11:51:00,
2013-02-28 04:56:00,6.4,1.0,30.65,ENE,64,0.0,0.0,78,0.00,,SKC,0.00,VWS V14.00,2013-02-28 11:56:00,
2013-02-28 05:00:00,6.0,0.3,30.65,ENE,64,2.0,2.0,77,0.00,,SKC,0.00,VWS V14.00,2013-02-28 12:00:00,
2013-02-28 05:01:00,6.1,0.4,30.65,ENE,64,0.0,2.0,77,0.00,,SKC,0.00,VWS V14.00,2013-02-28 12:01:00,
2013-02-28 05:06:00,5.6,0.2,30.65,ENE,64,0.0,2.0,78,0.00,,SKC,0.00,VWS V14.00,2013-02-28 12:06:00,
2013-02-28 05:11:00,5.8,0.7,30.66,ENE,64,0.0,2.0,79,0.00,,SKC,0.00,VWS V14.00,2013-02-28 12:11:00,
2013-02-28 05:17:00,5.9,1.1,30.65,ENE,64,0.0,2.0,80,0.00,,SKC,0.00,VWS V14.00,2013-02-28 12:17:00,
2013-02-28 05:22:00,6.0,1.2,30.66,ENE,64,0.0,2.0,80,0.00,,SKC,0.00,VWS V14.00,2013-02-28 12:22:00,
2013-02-28 05:27:00,5.9,0.8,30.66,ENE,64,0.0,2.0,79,0.00,,SKC,0.00,VWS V14.00,2013-02-28 12:27:00,
2013-02-28 05:30:00,5.8,1.0,30.66,ENE,64,0.0,2.0,80,0.00,,SKC,0.00,VWS V14.00,2013-02-28 12:30:00,
2013-02-28 05:32:00,5.8,1.0,30.66,ENE,64,0.0,0.0,80,0.00,,SKC,0.00,VWS V14.00,2013-02-28 12:32:00,
2013-02-28 05:38:00,5.8,1.2,30.66,ENE,64,0.0,2.0,81,0.00,,SKC,0.00,VWS V14.00,2013-02-28 12:38:00,
2013-02-28 05:43:00,5.7,0.6,30.66,ENE,64,0.0,2.0,79,0.00,,SKC,0.00,VWS V14.00,2013-02-28 12:43:00,
2013-02-28 05:48:00,5.8,1.0,30.66,ENE,64,0.0,2.0,80,0.00,,SKC,0.00,VWS V14.00,2013-02-28 12:48:00,
2013-02-28 05:53:00,6.0,2.0,30.67,ENE,64,0.0,2.0,83,0.00,,SKC,0.00,VWS V14.00,2013-02-28 12:53:00,
2013-02-28 05:58:00,5.9,1.3,30.66,ENE,64,0.0,2.0,81,0.00,,SKC,0.00,VWS V14.00,2013-02-28 12:58:00,
2013-02-28 06:00:00,5.5,0.4,30.66,ENE,64,0.0,2.0,79,0.00,,SKC,0.00,VWS V14.00,2013-02-28 13:00:00,
2013-02-28 06:04:00,5.5,0.4,30.66,ENE,64,0.0,0.0,79,0.00,,SKC,0.00,VWS V14.00,2013-02-28 13:04:00,
2013-02-28 06:09:00,5.4,0.6,30.66,ENE,64,0.0,1.0,80,0.00,,SKC,0.00,VWS V14.00,2013-02-28 13:09:00,
2013-02-28 06:14:00,5.1,0.0,30.66,ENE,64,0.0,1.0,79,0.00,,SKC,0.00,VWS V14.00,2013-02-28 13:14:00,
2013-02-28 06:20:00,5.1,0.3,30.66,ENE,64,0.0,1.0,80,0.00,,SKC,0.00,VWS V14.00,2013-02-28 13:20:00,
2013-02-28 06:25:00,5.0,0.2,30.66,ENE,64,0.0,1.0,80,0.00,,SKC,0.00,VWS V14.00,2013-02-28 13:25:00,
2013-02-28 06:30:00,4.8,0.0,30.66,ENE,64,0.0,1.0,80,0.00,,SKC,0.00,VWS V14.00,2013-02-28 13:30:00,
2013-02-28 06:36:00,4.6,-0.5,30.67,ENE,64,0.0,0.0,79,0.00,,SKC,0.00,VWS V14.00,2013-02-28 13:36:00,
2013-02-28 06:41:00,4.5,-0.3,30.66,ENE,64,0.0,3.0,80,0.00,,SKC,0.00,VWS V14.00,2013-02-28 13:41:00,
2013-02-28 06:46:00,4.6,0.3,30.66,ENE,64,0.0,3.0,82,0.00,,SKC,0.00,VWS V14.00,2013-02-28 13:46:00,
2013-02-28 06:51:00,4.7,0.2,30.66,ENE,64,0.0,3.0,81,0.00,,SKC,0.00,VWS V14.00,2013-02-28 13:51:00,
2013-02-28 06:57:00,4.4,-0.4,30.66,ENE,64,0.0,3.0,80,0.00,,SKC,0.00,VWS V14.00,2013-02-28 13:57:00,
2013-02-28 07:00:00,4.5,0.0,30.66,ENE,64,0.0,3.0,81,0.00,,SKC,0.00,VWS V14.00,2013-02-28 14:00:00,
2013-02-28 07:02:00,4.5,0.0,30.66,ENE,64,1.0,3.0,81,0.00,,SKC,0.00,VWS V14.00,2013-02-28 14:02:00,
2013-02-28 07:07:00,4.3,-0.5,30.66,ENE,64,1.0,3.0,80,0.00,,SKC,0.00,VWS V14.00,2013-02-28 14:07:00,
2013-02-28 07:12:00,4.1,-0.4,30.66,ENE,64,0.0,3.0,81,0.00,,SKC,0.00,VWS V14.00,2013-02-28 14:12:00,
2013-02-28 07:18:00,4.5,0.2,30.66,ENE,64,0.0,3.0,82,0.00,,SKC,0.00,VWS V14.00,2013-02-28 14:18:00,
2013-02-28 07:23:00,4.8,0.5,30.67,ENE,64,0.0,3.0,82,0.00,,SKC,0.00,VWS V14.00,2013-02-28 14:23:00,
2013-02-28 07:28:00,4.8,0.3,30.67,ENE,64,0.0,3.0,81,0.00,,SKC,0.00,VWS V14.00,2013-02-28 14:28:00,
2013-02-28 07:30:00,4.9,0.9,30.67,ENE,64,0.0,3.0,83,0.00,,SKC,0.00,VWS V14.00,2013-02-28 14:30:00,
2013-02-28 07:34:00,5.0,1.0,30.67,ENE,64,0.0,0.0,83,0.00,,SKC,0.00,VWS V14.00,2013-02-28 14:34:00,
2013-02-28 07:39:00,5.2,0.9,30.67,ENE,64,0.0,0.0,82,0.00,,SKC,0.00,VWS V14.00,2013-02-28 14:39:00,
2013-02-28 07:44:00,5.1,0.6,30.68,ENE,64,0.0,0.0,81,0.00,,SKC,0.00,VWS V14.00,2013-02-28 14:44:00,
2013-02-28 07:49:00,5.0,0.2,30.68,ENE,64,0.0,0.0,80,0.00,,SKC,0.00,VWS V14.00,2013-02-28 14:49:00,
2013-02-28 07:55:00,4.9,0.4,30.68,ENE,64,0.0,0.0,81,0.00,,SKC,0.00,VWS V14.00,2013-02-28 14:55:00,
2013-02-28 08:00:00,5.0,0.5,30.68,ENE,64,0.0,0.0,81,0.00,,SKC,0.00,VWS V14.00,2013-02-28 15:00:00,
2013-02-28 08:05:00,4.9,0.4,30.67,ENE,64,0.0,0.0,81,0.00,,SKC,0.00,VWS V14.00,2013-02-28 15:05:00,
2013-02-28 08:11:00,5.1,0.8,30.68,ENE,64,0.0,0.0,82,0.00,,SKC,0.00,VWS V14.00,2013-02-28 15:11:00,
2013-02-28 08:16:00,5.6,1.6,30.68,ENE,64,0.0,0.0,83,0.00,,SKC,0.00,VWS V14.00,2013-02-28 15:16:00,
2013-02-28 08:21:00,6.7,2.6,30.68,East,82,0.0,3.0,83,0.00,,SKC,0.00,VWS V14.00,2013-02-28 15:21:00,
2013-02-28 08:26:00,8.2,3.6,30.68,East,82,1.0,3.0,81,0.00,,SKC,0.00,VWS V14.00,2013-02-28 15:26:00,
2013-02-28 08:30:00,9.7,3.7,30.68,East,82,1.0,3.0,76,0.00,,SKC,0.00,VWS V14.00,2013-02-28 15:30:00,
2013-02-28 08:32:00,9.6,3.8,30.68,East,82,1.0,3.0,77,0.00,,SKC,0.00,VWS V14.00,2013-02-28 15:32:00,
2013-02-28 08:37:00,11.0,4.1,30.68,SE,126,1.0,4.0,73,0.00,,SKC,0.00,VWS V14.00,2013-02-28 15:37:00,
2013-02-28 08:42:00,12.0,5.0,30.69,SE,129,0.0,4.0,73,0.00,,SKC,0.00,VWS V14.00,2013-02-28 15:42:00,
2013-02-28 08:47:00,12.8,4.2,30.68,SE,140,2.0,6.0,68,0.00,,SKC,0.00,VWS V14.00,2013-02-28 15:47:00,
2013-02-28 08:52:00,13.4,4.2,30.69,South,171,4.0,6.0,66,0.00,,SKC,0.00,VWS V14.00,2013-02-28 15:52:00,
2013-02-28 08:58:00,14.1,4.2,30.69,SSE,159,5.0,7.0,64,0.00,,SKC,0.00,VWS V14.00,2013-02-28 15:58:00,
2013-02-28 09:00:00,14.5,4.6,30.69,South,169,5.0,7.0,64,0.00,,SKC,0.00,VWS V14.00,2013-02-28 16:00:00,
2013-02-28 09:03:00,14.6,4.3,30.69,SSE,147,4.0,5.0,63,0.00,,SKC,0.00,VWS V14.00,2013-02-28 16:03:00,
2013-02-28 09:08:00,15.0,4.3,30.69,South,171,5.0,6.0,62,0.00,,SKC,0.00,VWS V14.00,2013-02-28 16:08:00,
2013-02-28 09:14:00,15.5,4.8,30.69,South,173,4.0,6.0,62,0.00,,SKC,0.00,VWS V14.00,2013-02-28 16:14:00,
2013-02-28 09:19:00,16.1,5.0,30.69,South,178,2.0,6.0,61,0.00,,SKC,0.00,VWS V14.00,2013-02-28 16:19:00,
2013-02-28 09:24:00,16.8,5.0,30.70,South,179,1.0,6.0,59,0.00,,SKC,0.00,VWS V14.00,2013-02-28 16:24:00,
2013-02-28 09:29:00,17.6,5.3,30.69,South,179,2.0,6.0,58,0.00,,SKC,0.00,VWS V14.00,2013-02-28 16:29:00,
2013-02-28 09:30:00,18.0,5.7,30.70,South,175,2.0,6.0,58,0.00,,SKC,0.00,VWS V14.00,2013-02-28 16:30:00,
2013-02-28 09:35:00,18.4,5.7,30.70,South,175,0.0,2.0,57,0.00,,SKC,0.00,VWS V14.00,2013-02-28 16:35:00,
2013-02-28 09:40:00,19.1,5.6,30.70,South,175,0.0,4.0,55,0.00,,SKC,0.00,VWS V14.00,2013-02-28 16:40:00,
2013-02-28 09:45:00,19.8,6.3,30.69,South,171,0.0,4.0,55,0.00,,SKC,0.00,VWS V14.00,2013-02-28 16:45:00,
2013-02-28 09:50:00,20.6,6.2,30.69,SSE,159,2.0,4.0,53,0.00,,SKC,0.00,VWS V14.00,2013-02-28 16:50:00,
2013-02-28 09:56:00,21.2,5.9,30.69,SSE,159,0.0,4.0,51,0.00,,SKC,0.00,VWS V14.00,2013-02-28 16:56:00,
2013-02-28 10:00:00,22.2,6.4,30.69,SSE,159,0.0,4.0,50,0.00,,SKC,0.00,VWS V14.00,2013-02-28 17:00:00,
2013-02-28 10:01:00,22.0,6.7,30.69,SSE,159,0.0,4.0,51,0.00,,SKC,0.00,VWS V14.00,2013-02-28 17:01:00,
2013-02-28 10:06:00,22.9,7.1,30.68,SSW,192,3.0,4.0,50,0.00,,SKC,0.00,VWS V14.00,2013-02-28 17:06:00,
2013-02-28 10:11:00,23.5,6.7,30.68,South,184,3.0,4.0,48,0.00,,SKC,0.00,VWS V14.00,2013-02-28 17:11:00,
2013-02-28 10:17:00,24.0,6.7,30.68,SSW,192,3.0,4.0,47,0.00,,SKC,0.00,VWS V14.00,2013-02-28 17:17:00,
2013-02-28 10:22:00,24.5,6.7,30.67,SSE,167,1.0,6.0,46,0.00,,SKC,0.00,VWS V14.00,2013-02-28 17:22:00,
2013-02-28 10:27:00,25.2,6.8,30.67,South,180,3.0,6.0,45,0.00,,SKC,0.00,VWS V14.00,2013-02-28 17:27:00,
2013-02-28 10:30:00,25.4,6.0,30.67,SSW,200,3.0,6.0,43,0.00,,SKC,0.00,VWS V14.00,2013-02-28 17:30:00,
2013-02-28 10:32:00,25.5,6.1,30.67,SSW,200,2.0,3.0,43,0.00,,SKC,0.00,VWS V14.00,2013-02-28 17:32:00,
2013-02-28 10:38:00,25.5,6.6,30.66,SSW,205,3.0,5.0,44,0.00,,SKC,0.00,VWS V14.00,2013-02-28 17:38:00,
2013-02-28 10:43:00,25.6,7.2,30.66,SSW,211,0.0,5.0,45,0.00,,SKC,0.00,VWS V14.00,2013-02-28 17:43:00,
2013-02-28 10:48:00,25.9,8.0,30.66,SW,215,3.0,5.0,46,0.00,,SKC,0.00,VWS V14.00,2013-02-28 17:48:00,
2013-02-28 10:54:00,26.2,8.3,30.66,SW,227,3.0,5.0,46,0.00,,SKC,0.00,VWS V14.00,2013-02-28 17:54:00,
2013-02-28 10:59:00,27.0,9.0,30.66,SSW,199,2.0,5.0,46,0.00,,SKC,0.00,VWS V14.00,2013-02-28 17:59:00,
2013-02-28 11:00:00,27.4,8.9,30.66,SW,223,2.0,6.0,45,0.00,,SKC,0.00,VWS V14.00,2013-02-28 18:00:00,
2013-02-28 11:04:00,27.5,9.4,30.66,SSW,201,2.0,5.0,46,0.00,,SKC,0.00,VWS V14.00,2013-02-28 18:04:00,
2013-02-28 11:09:00,28.0,9.4,30.65,SSW,211,4.0,6.0,45,0.00,,SKC,0.00,VWS V14.00,2013-02-28 18:09:00,
2013-02-28 11:14:00,28.3,10.2,30.65,SSW,213,3.0,7.0,46,0.00,,SKC,0.00,VWS V14.00,2013-02-28 18:14:00,
2013-02-28 11:20:00,28.7,9.6,30.65,SW,221,1.0,7.0,44,0.00,,SKC,0.00,VWS V14.00,2013-02-28 18:20:00,
2013-02-28 11:25:00,29.1,9.4,30.65,SSW,213,2.0,7.0,43,0.00,,SKC,0.00,VWS V14.00,2013-02-28 18:25:00,
2013-02-28 11:30:00,29.5,9.8,30.65,SW,229,2.0,7.0,43,0.00,,SKC,0.00,VWS V14.00,2013-02-28 18:30:00,
2013-02-28 11:35:00,29.3,9.6,30.64,SW,215,3.0,4.0,43,0.00,,SKC,0.00,VWS V14.00,2013-02-28 18:35:00,
2013-02-28 11:41:00,29.4,10.2,30.64,SW,227,1.0,6.0,44,0.00,,SKC,0.00,VWS V14.00,2013-02-28 18:41:00,
2013-02-28 11:46:00,29.7,8.9,30.64,SW,217,3.0,6.0,41,0.00,,SKC,0.00,VWS V14.00,2013-02-28 18:46:00,
2013-02-28 11:51:00,29.9,9.1,30.64,SW,217,2.0,6.0,41,0.00,,SKC,0.00,VWS V14.00,2013-02-28 18:51:00,
2013-02-28 11:57:00,30.1,9.3,30.64,SW,227,1.0,6.0,41,0.00,,SKC,0.00,VWS V14.00,2013-02-28 18:57:00,
2013-02-28 12:00:00,30.6,8.6,30.64,SW,214,3.0,6.0,39,0.00,,SKC,0.00,VWS V14.00,2013-02-28 19:00:00,
2013-02-28 12:02:00,30.6,9.7,30.64,SW,214,4.0,6.0,41,0.00,,SKC,0.00,VWS V14.00,2013-02-28 19:02:00,
2013-02-28 12:07:00,31.0,8.4,30.64,SSW,209,1.0,4.0,38,0.00,,SKC,0.00,VWS V14.00,2013-02-28 19:07:00,
2013-02-28 12:13:00,31.3,8.1,30.63,SSW,192,0.0,4.0,37,0.00,,SKC,0.00,VWS V14.00,2013-02-28 19:13:00,
2013-02-28 12:18:00,31.5,8.2,30.63,SSW,196,0.0,4.0,37,0.00,,SKC,0.00,VWS V14.00,2013-02-28 19:18:00,
2013-02-28 12:23:00,32.0,8.7,30.62,South,190,2.0,4.0,37,0.00,,SKC,0.00,VWS V14.00,2013-02-28 19:23:00,
2013-02-28 12:28:00,32.4,9.6,30.62,South,186,0.0,4.0,38,0.00,,SKC,0.00,VWS V14.00,2013-02-28 19:28:00,
2013-02-28 12:30:00,32.6,9.8,30.62,South,180,1.0,4.0,38,0.00,,SKC,0.00,VWS V14.00,2013-02-28 19:30:00,
2013-02-28 12:33:00,32.7,10.5,30.62,South,184,2.0,6.0,39,0.00,,SKC,0.00,VWS V14.00,2013-02-28 19:33:00,
2013-02-28 12:39:00,32.6,10.4,30.61,South,175,0.0,6.0,39,0.00,,SKC,0.00,VWS V14.00,2013-02-28 19:39:00,
2013-02-28 12:44:00,33.2,9.1,30.61,South,190,5.0,6.0,36,0.00,,SKC,0.00,VWS V14.00,2013-02-28 19:44:00,
2013-02-28 12:49:00,33.2,9.1,30.61,SSW,192,0.0,6.0,36,0.00,,SKC,0.00,VWS V14.00,2013-02-28 19:49:00,
2013-02-28 12:54:00,33.4,9.3,30.60,South,175,1.0,6.0,36,0.00,,SKC,0.00,VWS V14.00,2013-02-28 19:54:00,
2013-02-28 13:00:00,33.4,9.9,30.60,SSW,202,0.0,6.0,37,0.00,,SKC,0.00,VWS V14.00,2013-02-28 20:00:00,
2013-02-28 13:05:00,33.5,8.8,30.60,SSW,197,2.0,3.0,35,0.00,,SKC,0.00,VWS V14.00,2013-02-28 20:05:00,
2013-02-28 13:10:00,33.7,8.3,30.59,South,186,0.0,4.0,34,0.00,,SKC,0.00,VWS V14.00,2013-02-28 20:10:00,
2013-02-28 13:16:00,33.9,8.5,30.58,SSW,200,0.0,4.0,34,0.00,,SKC,0.00,VWS V14.00,2013-02-28 20:16:00,
2013-02-28 13:21:00,34.2,8.1,30.58,South,176,0.0,4.0,33,0.00,,SKC,0.00,VWS V14.00,2013-02-28 20:21:00,
2013-02-28 13:26:00,34.5,9.0,30.58,SE,132,0.0,5.0,34,0.00,,SKC,0.00,VWS V14.00,2013-02-28 20:26:00,
2013-02-28 13:30:00,35.0,8.8,30.58,SSE,163,2.0,7.0,33,0.00,,SKC,0.00,VWS V14.00,2013-02-28 20:30:00,
2013-02-28 13:31:00,35.0,8.8,30.58,SSE,163,2.0,7.0,33,0.00,,SKC,0.00,VWS V14.00,2013-02-28 20:31:00,
2013-02-28 13:37:00,35.3,8.4,30.58,SSW,212,5.0,5.0,32,0.00,,SKC,0.00,VWS V14.00,2013-02-28 20:37:00,
2013-02-28 13:42:00,35.5,9.9,30.58,SW,214,0.0,5.0,34,0.00,,SKC,0.00,VWS V14.00,2013-02-28 20:42:00,
2013-02-28 13:47:00,36.0,9.7,30.57,SSW,194,2.0,5.0,33,0.00,,SKC,0.00,VWS V14.00,2013-02-28 20:47:00,
2013-02-28 13:52:00,36.3,10.6,30.57,SSW,207,2.0,5.0,34,0.00,,SKC,0.00,VWS V14.00,2013-02-28 20:52:00,
2013-02-28 13:58:00,36.1,10.5,30.57,NW,313,0.0,7.0,34,0.00,,SKC,0.00,VWS V14.00,2013-02-28 20:58:00,
2013-02-28 14:00:00,36.1,11.1,30.57,NNW,329,0.0,7.0,35,0.00,,SKC,0.00,VWS V14.00,2013-02-28 21:00:00,
2013-02-28 14:03:00,36.2,11.2,30.57,West,267,0.0,3.0,35,0.00,,SKC,0.00,VWS V14.00,2013-02-28 21:03:00,
2013-02-28 14:08:00,36.0,10.4,30.57,NE,51,3.0,6.0,34,0.00,,SKC,0.00,VWS V14.00,2013-02-28 21:08:00,
2013-02-28 14:13:00,35.8,10.8,30.57,South,176,4.0,6.0,35,0.00,,SKC,0.00,VWS V14.00,2013-02-28 21:13:00,
2013-02-28 14:19:00,36.0,12.9,30.57,SW,232,4.0,6.0,38,0.00,,SKC,0.00,VWS V14.00,2013-02-28 21:19:00,
2013-02-28 14:24:00,35.8,11.5,30.57,SSW,207,1.0,7.0,36,0.00,,SKC,0.00,VWS V14.00,2013-02-28 21:24:00,
2013-02-28 14:29:00,35.2,11.6,30.57,SW,214,0.0,7.0,37,0.00,,SKC,0.00,VWS V14.00,2013-02-28 21:29:00,
2013-02-28 14:30:00,35.2,11.6,30.57,SW,214,0.0,7.0,37,0.00,,SKC,0.00,VWS V14.00,2013-02-28 21:30:00,
2013-02-28 14:34:00,35.3,12.2,30.57,SW,214,0.0,0.0,38,0.00,,SKC,0.00,VWS V14.00,2013-02-28 21:34:00,
2013-02-28 14:40:00,35.7,13.8,30.57,SSW,201,3.0,5.0,40,0.00,,SKC,0.00,VWS V14.00,2013-02-28 21:40:00,
2013-02-28 14:45:00,35.8,12.7,30.58,SSW,193,3.0,6.0,38,0.00,,SKC,0.00,VWS V14.00,2013-02-28 21:45:00,
2013-02-28 14:50:00,35.5,11.8,30.58,South,188,1.0,7.0,37,0.00,,SKC,0.00,VWS V14.00,2013-02-28 21:50:00,
2013-02-28 14:55:00,35.2,12.7,30.58,South,169,0.0,8.0,39,0.00,,SKC,0.00,VWS V14.00,2013-02-28 21:55:00,
2013-02-28 15:00:00,35.1,13.8,30.58,South,173,1.0,8.0,41,0.00,,SKC,0.00,VWS V14.00,2013-02-28 22:00:00,
2013-02-28 15:06:00,35.3,14.5,30.58,NW,325,2.0,3.0,42,0.00,,SKC,0.00,VWS V14.00,2013-02-28 22:06:00,
2013-02-28 15:11:00,35.4,15.1,30.58,NE,34,6.0,7.0,43,0.00,,SKC,0.00,VWS V14.00,2013-02-28 22:11:00,
2013-02-28 15:16:00,34.9,14.7,30.58,North,5,6.0,10.0,43,0.00,,SKC,0.00,VWS V14.00,2013-02-28 22:16:00,
2013-02-28 15:21:00,34.7,15.0,30.58,North,355,1.0,10.0,44,0.00,,SKC,0.00,VWS V14.00,2013-02-28 22:21:00,
2013-02-28 15:27:00,34.6,14.9,30.58,North,11,2.0,10.0,44,0.00,,SKC,0.00,VWS V14.00,2013-02-28 22:27:00,
2013-02-28 15:30:00,34.7,15.6,30.58,ENE,78,2.0,10.0,45,0.00,,SKC,0.00,VWS V14.00,2013-02-28 22:30:00,
2013-02-28 15:32:00,34.7,15.6,30.58,ENE,78,2.0,10.0,45,0.00,,SKC,0.00,VWS V14.00,2013-02-28 22:32:00,
2013-02-28 15:37:00,34.6,14.9,30.59,NNE,30,6.0,9.0,44,0.00,,SKC,0.00,VWS V14.00,2013-02-28 22:37:00,
2013-02-28 15:42:00,34.4,15.8,30.59,NNW,340,6.0,9.0,46,0.00,,SKC,0.00,VWS V14.00,2013-02-28 22:42:00,
2013-02-28 15:48:00,34.2,17.0,30.59,WNW,300,2.0,9.0,49,0.00,,SKC,0.00,VWS V14.00,2013-02-28 22:48:00,
2013-02-28 15:53:00,34.1,17.9,30.59,NNW,337,2.0,9.0,51,0.00,,SKC,0.00,VWS V14.00,2013-02-28 22:53:00,
2013-02-28 15:58:00,33.8,18.5,30.59,NW,319,2.0,9.0,53,0.00,,SKC,0.00,VWS V14.00,2013-02-28 22:58:00,
2013-02-28 16:00:00,33.8,18.5,30.59,NNW,327,0.0,9.0,53,0.00,,SKC,0.00,VWS V14.00,2013-02-28 23:00:00,
2013-02-28 16:03:00,33.8,18.5,30.59,West,273,0.0,6.0,53,0.00,,SKC,0.00,VWS V14.00,2013-02-28 23:03:00,
2013-02-28 16:09:00,33.9,18.6,30.59,West,273,1.0,6.0,53,0.00,,SKC,0.00,VWS V14.00,2013-02-28 23:09:00,
2013-02-28 16:14:00,33.8,18.9,30.59,West,277,0.0,6.0,54,0.00,,SKC,0.00,VWS V14.00,2013-02-28 23:14:00,
2013-02-28 16:19:00,33.8,18.9,30.59,West,277,0.0,6.0,54,0.00,,SKC,0.00,VWS V14.00,2013-02-28 23:19:00,
2013-02-28 16:24:00,33.9,18.1,30.59,North,9,2.0,6.0,52,0.00,,SKC,0.00,VWS V14.00,2013-02-28 23:24:00,
2013-02-28 16:30:00,33.9,17.7,30.58,North,349,1.0,6.0,51,0.00,,SKC,0.00,VWS V14.00,2013-02-28 23:30:00,
2013-02-28 16:35:00,33.9,18.1,30.58,North,349,6.0,8.0,52,0.00,,SKC,0.00,VWS V14.00,2013-02-28 23:35:00,
2013-02-28 16:40:00,33.9,18.1,30.59,NE,35,0.0,8.0,52,0.00,,SKC,0.00,VWS V14.00,2013-02-28 23:40:00,
2013-02-28 16:45:00,33.8,18.9,30.59,ENE,62,2.0,11.0,54,0.00,,SKC,0.00,VWS V14.00,2013-02-28 23:45:00,
2013-02-28 16:51:00,33.5,19.5,30.58,NE,42,0.0,11.0,56,0.00,,SKC,0.00,VWS V14.00,2013-02-28 23:51:00,
2013-02-28 16:56:00,33.4,19.8,30.59,NNE,28,0.0,11.0,57,0.00,,SKC,0.00,VWS V14.00,2013-02-28 23:56:00,
2013-02-28 17:00:00,33.3,20.5,30.59,North,0,2.0,11.0,59,0.00,,SKC,0.00,VWS V14.00,2013-03-01 00:00:00,
2013-02-28 17:19:00,32.9,20.2,30.59,NNE,24,3.0,5.0,59,0.00,,SKC,0.00,VWS V14.00,2013-03-01 00:19:00,
2013-02-28 17:26:00,32.6,20.3,30.59,NNW,347,2.0,2.0,60,0.00,,SKC,0.00,VWS V14.00,2013-03-01 00:26:00,
2013-02-28 17:31:00,32.4,20.5,30.59,NE,36,4.0,10.0,61,0.00,,SKC,0.00,VWS V14.00,2013-03-01 00:31:00,
2013-02-28 17:36:00,32.0,21.2,30.60,NNE,30,0.0,10.0,64,0.00,,SKC,0.00,VWS V14.00,2013-03-01 00:36:00,
2013-02-28 17:42:00,31.6,21.6,30.60,North,349,7.0,11.0,66,0.00,,SKC,0.00,VWS V14.00,2013-03-01 00:42:00,
2013-02-28 17:47:00,31.4,21.7,30.60,North,351,2.0,11.0,67,0.00,,SKC,0.00,VWS V14.00,2013-03-01 00:47:00,
2013-02-28 17:52:00,31.2,22.2,30.61,NNE,32,4.0,11.0,69,0.00,,SKC,0.00,VWS V14.00,2013-03-01 00:52:00,
2013-02-28 17:57:00,31.1,22.5,30.61,NNE,26,3.0,11.0,70,0.00,,SKC,0.00,VWS V14.00,2013-03-01 00:57:00,
2013-02-28 18:03:00,31.0,23.0,30.61,NE,38,1.0,4.0,72,0.00,,SKC,0.00,VWS V14.00,2013-03-01 01:03:00,
2013-02-28 18:08:00,30.8,23.2,30.62,NNE,29,0.0,4.0,73,0.00,,SKC,0.00,VWS V14.00,2013-03-01 01:08:00,
2013-02-28 18:13:00,30.6,24.0,30.61,NE,46,0.0,6.0,76,0.00,,SKC,0.00,VWS V14.00,2013-03-01 01:13:00,
2013-02-28 18:18:00,30.3,24.3,30.61,NE,46,0.0,6.0,78,0.00,,SKC,0.00,VWS V14.00,2013-03-01 01:18:00,
2013-02-28 18:23:00,30.1,24.4,30.61,NE,46,0.0,6.0,79,0.00,,SKC,0.00,VWS V14.00,2013-03-01 01:23:00,
2013-02-28 18:29:00,29.9,24.2,30.61,NE,46,0.0,6.0,79,0.00,,SKC,0.00,VWS V14.00,2013-03-01 01:29:00,
2013-02-28 18:34:00,29.8,24.4,30.61,NE,46,0.0,0.0,80,0.00,,SKC,0.00,VWS V14.00,2013-03-01 01:34:00,
2013-02-28 18:39:00,29.8,24.4,30.60,NE,46,0.0,0.0,80,0.00,,SKC,0.00,VWS V14.00,2013-03-01 01:39:00,
2013-02-28 18:44:00,29.7,24.3,30.60,NE,46,1.0,2.0,80,0.00,,SKC,0.00,VWS V14.00,2013-03-01 01:44:00,
2013-02-28 18:50:00,29.6,24.2,30.60,NE,46,0.0,2.0,80,0.00,,SKC,0.00,VWS V14.00,2013-03-01 01:50:00,
2013-02-28 18:55:00,29.6,24.2,30.61,NE,46,0.0,2.0,80,0.00,,SKC,0.00,VWS V14.00,2013-03-01 01:55:00,
2013-02-28 19:00:00,29.5,24.1,30.61,NE,46,0.0,2.0,80,0.00,,SKC,0.00,VWS V14.00,2013-03-01 02:00:00,
2013-02-28 19:05:00,29.4,24.0,30.61,NE,46,0.0,1.0,80,0.00,,SKC,0.00,VWS V14.00,2013-03-01 02:05:00,
2013-02-28 19:10:00,29.4,24.0,30.61,NE,46,0.0,1.0,80,0.00,,SKC,0.00,VWS V14.00,2013-03-01 02:10:00,
2013-02-28 19:15:00,29.4,24.0,30.61,NE,46,0.0,1.0,80,0.00,,SKC,0.00,VWS V14.00,2013-03-01 02:15:00,
2013-02-28 19:21:00,29.3,23.9,30.61,NE,46,0.0,1.0,80,0.00,,SKC,0.00,VWS V14.00,2013-03-01 02:21:00,
2013-02-28 19:26:00,29.3,23.9,30.61,NE,46,0.0,1.0,80,0.00,,SKC,0.00,VWS V14.00,2013-03-01 02:26:00,
2013-02-28 19:31:00,29.2,24.1,30.61,NE,46,0.0,1.0,81,0.00,,SKC,0.00,VWS V14.00,2013-03-01 02:31:00,
2013-02-28 19:36:00,29.3,24.5,30.61,NE,46,0.0,0.0,82,0.00,,SKC,0.00,VWS V14.00,2013-03-01 02:36:00,
2013-02-28 19:42:00,29.4,24.3,30.62,NE,46,0.0,0.0,81,0.00,,SKC,0.00,VWS V14.00,2013-03-01 02:42:00,
2013-02-28 19:47:00,29.4,24.0,30.61,NE,46,0.0,0.0,80,0.00,,SKC,0.00,VWS V14.00,2013-03-01 02:47:00,
2013-02-28 19:52:00,29.4,24.0,30.61,NE,46,0.0,0.0,80,0.00,,SKC,0.00,VWS V14.00,2013-03-01 02:52:00,
2013-02-28 19:58:00,29.3,23.6,30.61,NE,46,0.0,1.0,79,0.00,,SKC,0.00,VWS V14.00,2013-03-01 02:58:00,
2013-02-28 20:03:00,29.2,23.8,30.61,NE,46,0.0,0.0,80,0.00,,SKC,0.00,VWS V14.00,2013-03-01 03:03:00,
2013-02-28 20:08:00,29.0,23.6,30.61,NE,46,0.0,0.0,80,0.00,,SKC,0.00,VWS V14.00,2013-03-01 03:08:00,
2013-02-28 20:13:00,29.0,23.6,30.61,NE,46,0.0,0.0,80,0.00,,SKC,0.00,VWS V14.00,2013-03-01 03:13:00,
2013-02-28 20:19:00,29.0,23.6,30.61,NE,46,0.0,0.0,80,0.00,,SKC,0.00,VWS V14.00,2013-03-01 03:19:00,
2013-02-28 20:24:00,28.9,23.5,30.61,NE,46,0.0,0.0,80,0.00,,SKC,0.00,VWS V14.00,2013-03-01 03:24:00,
2013-02-28 20:29:00,28.9,23.8,30.61,NE,46,0.0,0.0,81,0.00,,SKC,0.00,VWS V14.00,2013-03-01 03:29:00,
2013-02-28 20:34:00,28.9,23.8,30.61,NE,46,0.0,0.0,81,0.00,,SKC,0.00,VWS V14.00,2013-03-01 03:34:00,
2013-02-28 20:40:00,28.8,23.7,30.62,NE,46,0.0,0.0,81,0.00,,SKC,0.00,VWS V14.00,2013-03-01 03:40:00,
2013-02-28 20:45:00,28.8,24.0,30.62,NE,46,0.0,0.0,82,0.00,,SKC,0.00,VWS V14.00,2013-03-01 03:45:00,
2013-02-28 20:50:00,28.8,24.3,30.63,NE,46,0.0,0.0,83,0.00,,SKC,0.00,VWS V14.00,2013-03-01 03:50:00,
2013-02-28 20:55:00,28.7,24.5,30.62,NE,46,0.0,1.0,84,0.00,,SKC,0.00,VWS V14.00,2013-03-01 03:55:00,
2013-02-28 21:00:00,28.6,24.7,30.63,NE,46,0.0,1.0,85,0.00,,SKC,0.00,VWS V14.00,2013-03-01 04:00:00,
2013-02-28 21:06:00,28.6,24.7,30.63,NE,46,0.0,0.0,85,0.00,,SKC,0.00,VWS V14.00,2013-03-01 04:06:00,
2013-02-28 21:11:00,28.5,24.9,30.63,NE,46,0.0,2.0,86,0.00,,SKC,0.00,VWS V14.00,2013-03-01 04:11:00,
2013-02-28 21:16:00,28.4,25.0,30.63,NE,46,0.0,2.0,87,0.00,,SKC,0.00,VWS V14.00,2013-03-01 04:16:00,
2013-02-28 21:21:00,28.4,25.3,30.63,NE,46,0.0,2.0,88,0.00,,SKC,0.00,VWS V14.00,2013-03-01 04:21:00,
2013-02-28 21:27:00,28.4,25.3,30.63,NE,46,0.0,2.0,88,0.00,,SKC,0.00,VWS V14.00,2013-03-01 04:27:00,
2013-02-28 21:33:00,28.4,25.3,30.63,NE,46,0.0,0.0,88,0.00,,SKC,0.00,VWS V14.00,2013-03-01 04:33:00,
2013-02-28 21:38:00,28.3,25.5,30.64,NE,46,0.0,2.0,89,0.00,,SKC,0.00,VWS V14.00,2013-03-01 04:38:00,
2013-02-28 21:43:00,28.3,25.5,30.64,NE,46,0.0,2.0,89,0.00,,SKC,0.00,VWS V14.00,2013-03-01 04:43:00,
2013-02-28 21:48:00,28.3,25.5,30.63,NE,46,0.0,2.0,89,0.00,,SKC,0.00,VWS V14.00,2013-03-01 04:48:00,
2013-02-28 21:54:00,28.3,25.5,30.63,NE,46,0.0,2.0,89,0.00,,SKC,0.00,VWS V14.00,2013-03-01 04:54:00,
2013-02-28 21:59:00,28.3,25.5,30.63,NE,46,0.0,2.0,89,0.00,,SKC,0.00,VWS V14.00,2013-03-01 04:59:00,
2013-02-28 22:00:00,28.3,25.5,30.63,NE,46,0.0,2.0,89,0.00,,SKC,0.00,VWS V14.00,2013-03-01 05:00:00,
2013-02-28 22:02:00,28.3,25.5,30.63,NE,46,0.0,2.0,89,0.00,,SKC,0.00,VWS V14.00,2013-03-01 05:02:00,
2013-02-28 22:03:00,28.3,25.5,30.64,NE,46,0.0,0.0,89,0.00,,SKC,0.00,VWS V14.00,2013-03-01 05:03:00,
2013-02-28 22:06:00,28.3,25.5,30.63,NE,46,0.0,0.0,89,0.00,,SKC,0.00,VWS V14.00,2013-03-01 05:06:00,
2013-02-28 22:11:00,28.2,25.4,30.63,NE,46,0.0,0.0,89,0.00,,SKC,0.00,VWS V14.00,2013-03-01 05:11:00,
2013-02-28 22:16:00,28.2,25.4,30.64,NE,46,0.0,0.0,89,0.00,,SKC,0.00,VWS V14.00,2013-03-01 05:16:00,
2013-02-28 22:21:00,28.2,25.6,30.64,NE,46,0.0,0.0,90,0.00,,SKC,0.00,VWS V14.00,2013-03-01 05:21:00,
2013-02-28 22:27:00,28.2,25.4,30.63,NE,46,0.0,0.0,89,0.00,,SKC,0.00,VWS V14.00,2013-03-01 05:27:00,
2013-02-28 22:32:00,28.2,25.4,30.63,NE,46,0.0,0.0,89,0.00,,SKC,0.00,VWS V14.00,2013-03-01 05:32:00,
2013-02-28 22:37:00,28.3,25.8,30.63,NE,46,0.0,0.0,90,0.00,,SKC,0.00,VWS V14.00,2013-03-01 05:37:00,
2013-02-28 22:42:00,28.2,25.6,30.63,NE,46,0.0,0.0,90,0.00,,SKC,0.00,VWS V14.00,2013-03-01 05:42:00,
2013-02-28 22:47:00,28.1,25.5,30.63,NE,46,0.0,0.0,90,0.00,,SKC,0.00,VWS V14.00,2013-03-01 05:47:00,
2013-02-28 22:53:00,28.0,25.2,30.62,NE,46,0.0,0.0,89,0.00,,SKC,0.00,VWS V14.00,2013-03-01 05:53:00,
2013-02-28 22:58:00,28.0,25.2,30.62,NE,46,0.0,0.0,89,0.00,,SKC,0.00,VWS V14.00,2013-03-01 05:58:00,
2013-02-28 23:03:00,27.9,25.4,30.62,NE,46,0.0,0.0,90,0.00,,SKC,0.00,VWS V14.00,2013-03-01 06:03:00,
2013-02-28 23:08:00,27.9,25.4,30.62,NE,46,0.0,0.0,90,0.00,,SKC,0.00,VWS V14.00,2013-03-01 06:08:00,
2013-02-28 23:14:00,27.8,25.2,30.61,NE,46,0.0,0.0,90,0.00,,SKC,0.00,VWS V14.00,2013-03-01 06:14:00,
2013-02-28 23:19:00,27.8,25.2,30.61,NE,46,0.0,0.0,90,0.00,,SKC,0.00,VWS V14.00,2013-03-01 06:19:00,
2013-02-28 23:24:00,27.8,25.2,30.61,NE,46,0.0,0.0,90,0.00,,SKC,0.00,VWS V14.00,2013-03-01 06:24:00,
2013-02-28 23:29:00,27.7,25.2,30.61,NE,46,0.0,0.0,90,0.00,,SKC,0.00,VWS V14.00,2013-03-01 06:29:00,
2013-02-28 23:35:00,27.7,25.2,30.61,NE,46,0.0,1.0,90,0.00,,SKC,0.00,VWS V14.00,2013-03-01 06:35:00,
2013-02-28 23:40:00,27.7,25.2,30.61,NE,46,0.0,1.0,90,0.00,,SKC,0.00,VWS V14.00,2013-03-01 06:40:00,
2013-02-28 23:45:00,27.6,25.1,30.61,NE,46,0.0,1.0,90,0.00,,SKC,0.00,VWS V14.00,2013-03-01 06:45:00,
2013-02-28 23:50:00,27.6,25.1,30.61,NE,46,0.0,1.0,90,0.00,,SKC,0.00,VWS V14.00,2013-03-01 06:50:00,
2013-02-28 23:56:00,27.6,25.1,30.61,NE,46,0.0,1.0,90,0.00,,SKC,0.00,VWS V14.00,2013-03-01 06:56:00,